Terminal Aerodrome Forecast
Issued by NWS

Home | Current Version | Previous Version | Text Only | Print | Product List | Glossary On
Versions: 1 2 3 4 5 6 7 8 9 10 11 12 13 14 15 16 17 18 19 20 21
916
FTUS41 KBGM 032325
TAFELM
TAF
KELM 032325Z 0400/0424 31010KT P6SM OVC035
     FM040500 30005KT P6SM OVC025
     FM041300 32005KT P6SM OVC035
     FM042000 VRB04KT P6SM BKN120=

USA.gov is the U.S. government's official web portal to all federal, state and local government web resources and services.